Alva, United Kingdom
Current Conditions -  °F | °C
As of 2:50 AM on Saturday 22 Nov 2014 (Local Time) from EGPH Reporting Station
Light Rain Light Rain  
Wind Chill: 44°   Ceiling: 3400
Heat Index: 46°   Visibility: 6mi
Dew Point: 43°   Wind: 5mph
Humidity: 87%   Direction: 40°NE
Pressure: 29.74"   Gusts: NA
Location:  56.15°N, 3.81°W
Report Text: EGPH 220250Z AUTO 04004KT 010V070 9999 -RA FEW019/// OVC034/// //////TCU 08/06 Q1007
Loading
Personal Weather Stations






























Interactive Weather Map New forecast layout! Learn more

10-Day Weather Forecast

Advertisements
Track Severe Weather on mobile